Holley, New York
Current Conditions -  °F | °C
As of 8:54 AM on Sunday 25 Jan 2015 (Local Time) from KROC Reporting Station
Broken Clouds Broken Clouds  
Wind Chill:   Ceiling: 1700
Heat Index: 19°   Visibility: 9mi
Dew Point: 12°   Wind: 10mph
Humidity: 74%   Direction: 310°NW
Pressure: 29.85"   Gusts: NA
Location:  43.23°N, 78.03°W
Report Text: KROC 251354Z 31009KT 9SM BKN017 M07/M11 A2985 RMK AO2 SLP119 T10721111
Loading
Personal Weather Stations






























Interactive Weather Map New forecast layout! Learn more

10-Day Weather Forecast

Advertisements
Track Severe Weather on mobile